createdAt,value
2018-11-20T00:01:01.160Z,3.40
2018-11-20T00:03:29.334Z,3.40
2018-11-20T00:05:57.417Z,3.50
2018-11-20T00:08:25.709Z,3.50
2018-11-20T00:10:53.826Z,3.50
2018-11-20T00:13:21.932Z,3.50
2018-11-20T00:15:50.034Z,3.50
2018-11-20T00:18:18.138Z,3.50
2018-11-20T00:20:46.216Z,3.50
2018-11-20T00:23:14.352Z,3.50
2018-11-20T00:25:42.526Z,3.60
2018-11-20T00:28:10.680Z,3.60
2018-11-20T00:30:38.862Z,3.60
2018-11-20T00:33:06.961Z,3.60
2018-11-20T00:35:35.105Z,3.60
2018-11-20T00:38:03.378Z,3.60
2018-11-20T00:40:31.509Z,3.60
2018-11-20T00:42:59.594Z,3.60
2018-11-20T00:45:27.724Z,3.60
2018-11-20T00:47:55.798Z,3.60
2018-11-20T00:50:24.084Z,3.50
2018-11-20T00:52:52.230Z,3.50
2018-11-20T00:55:31.564Z,3.50
2018-11-20T00:57:59.689Z,3.40
2018-11-20T01:00:27.800Z,3.40
2018-11-20T01:02:55.936Z,3.30
2018-11-20T01:05:24.167Z,3.30
2018-11-20T01:07:52.420Z,3.30
2018-11-20T01:10:20.507Z,3.20
2018-11-20T01:12:48.647Z,3.20
2018-11-20T01:15:16.717Z,3.20
2018-11-20T01:17:44.893Z,3.10
2018-11-20T01:20:13.073Z,3.10
2018-11-20T01:22:41.248Z,3.10
2018-11-20T01:25:09.384Z,3.00
2018-11-20T01:27:37.577Z,3.00
2018-11-20T01:30:06.850Z,3.00
2018-11-20T01:32:35.075Z,3.00
2018-11-20T01:35:03.194Z,2.90
2018-11-20T01:37:31.397Z,2.90
2018-11-20T01:39:59.485Z,2.90
2018-11-20T01:42:27.711Z,2.80
2018-11-20T01:44:55.879Z,2.80
2018-11-20T01:47:24.001Z,2.80
2018-11-20T01:49:52.157Z,2.80
2018-11-20T01:52:20.374Z,2.80
2018-11-20T01:54:48.608Z,2.80
2018-11-20T01:57:16.751Z,2.80
2018-11-20T01:59:44.907Z,2.80
2018-11-20T02:02:13.047Z,2.80
2018-11-20T02:04:41.213Z,2.80
2018-11-20T02:07:11.275Z,2.70
2018-11-20T02:09:39.405Z,2.70
2018-11-20T02:12:07.560Z,2.70
2018-11-20T02:14:35.755Z,2.70
2018-11-20T02:17:06.950Z,2.70
2018-11-20T02:19:35.199Z,2.70
2018-11-20T02:22:03.715Z,2.70
2018-11-20T02:24:31.866Z,2.70
2018-11-20T02:27:00.040Z,2.70
2018-11-20T02:29:28.241Z,2.70
2018-11-20T02:31:56.380Z,2.70
2018-11-20T02:34:24.538Z,2.70
2018-11-20T02:36:52.904Z,2.70
2018-11-20T02:39:21.269Z,2.70
2018-11-20T02:41:49.432Z,2.70
2018-11-20T02:44:17.652Z,2.70
2018-11-20T02:46:45.825Z,2.70
2018-11-20T02:49:13.932Z,2.70
2018-11-20T02:51:42.086Z,2.60
2018-11-20T02:54:10.222Z,2.60
2018-11-20T02:56:38.334Z,2.60
2018-11-20T02:59:06.492Z,2.60
2018-11-20T03:01:34.602Z,2.60
2018-11-20T03:04:02.802Z,2.60
2018-11-20T03:06:30.889Z,2.60
2018-11-20T03:08:58.979Z,2.60
2018-11-20T03:11:27.066Z,2.50
2018-11-20T03:13:55.172Z,2.50
2018-11-20T03:16:23.276Z,2.50
2018-11-20T03:18:51.384Z,2.50
2018-11-20T03:21:19.512Z,2.50
2018-11-20T03:23:47.625Z,2.50
2018-11-20T03:26:15.792Z,2.60
2018-11-20T03:28:52.232Z,2.60
2018-11-20T03:31:20.370Z,2.60
2018-11-20T03:33:50.531Z,2.60
2018-11-20T03:36:18.701Z,2.70
2018-11-20T03:38:46.784Z,2.70
2018-11-20T03:41:15.024Z,2.70
2018-11-20T03:43:43.120Z,2.70
2018-11-20T03:46:11.211Z,2.80
2018-11-20T03:48:39.303Z,2.80
2018-11-20T03:51:07.404Z,2.80
2018-11-20T03:53:35.525Z,2.80
2018-11-20T03:56:03.793Z,2.90
2018-11-20T03:58:31.894Z,2.90
2018-11-20T04:01:00.021Z,2.90
2018-11-20T04:03:28.170Z,2.90
2018-11-20T04:05:56.485Z,2.90
2018-11-20T04:08:24.631Z,2.90
2018-11-20T04:10:52.724Z,3.00
2018-11-20T04:13:20.832Z,2.90
2018-11-20T04:15:49.003Z,3.00
2018-11-20T04:18:17.137Z,3.00
2018-11-20T04:20:45.245Z,3.00
2018-11-20T04:23:13.403Z,3.00
2018-11-20T04:25:41.565Z,3.00
2018-11-20T04:28:09.696Z,3.00
2018-11-20T04:30:49.083Z,3.00
2018-11-20T04:33:39.103Z,3.00
2018-11-20T04:36:07.227Z,3.00
2018-11-20T04:38:35.296Z,3.10
2018-11-20T04:41:03.723Z,3.10
2018-11-20T04:43:31.849Z,3.10
2018-11-20T04:46:00.028Z,3.10
2018-11-20T04:48:28.252Z,3.10
2018-11-20T04:50:56.437Z,3.10
2018-11-20T04:53:24.568Z,3.10
2018-11-20T04:55:52.729Z,3.10
2018-11-20T04:58:20.832Z,3.10
2018-11-20T05:00:48.978Z,3.10
2018-11-20T05:03:17.120Z,3.10
2018-11-20T05:05:45.261Z,3.20
2018-11-20T05:08:13.372Z,3.20
2018-11-20T05:10:41.646Z,3.20
2018-11-20T05:13:09.827Z,3.20
2018-11-20T05:15:37.870Z,3.20
2018-11-20T05:18:06.228Z,3.20
2018-11-20T05:21:16.524Z,3.20
2018-11-20T05:23:44.658Z,3.20
2018-11-20T05:26:12.781Z,3.20
2018-11-20T05:28:41.146Z,3.20
2018-11-20T05:31:09.285Z,3.20
2018-11-20T05:33:37.344Z,3.20
2018-11-20T05:36:05.498Z,3.20
2018-11-20T05:38:33.676Z,3.20
2018-11-20T05:41:03.994Z,3.20
2018-11-20T05:43:30.012Z,3.20
2018-11-20T05:45:58.164Z,3.20
2018-11-20T05:48:26.257Z,3.20
2018-11-20T05:50:54.352Z,3.20
2018-11-20T05:53:22.440Z,3.30
2018-11-20T05:55:50.508Z,3.30
2018-11-20T05:58:18.639Z,3.30
2018-11-20T06:00:46.764Z,3.30
2018-11-20T06:03:14.954Z,3.30
2018-11-20T06:05:43.098Z,3.30
2018-11-20T06:08:11.187Z,3.30
2018-11-20T06:10:39.329Z,3.30
2018-11-20T06:13:08.508Z,3.30
2018-11-20T06:15:36.601Z,3.30
2018-11-20T06:18:04.708Z,3.30
2018-11-20T06:20:32.895Z,3.30
2018-11-20T06:23:00.997Z,3.30
2018-11-20T06:25:29.156Z,3.30
2018-11-20T06:27:57.266Z,3.30
2018-11-20T06:30:25.381Z,3.30
2018-11-20T06:32:53.513Z,3.30
2018-11-20T06:35:21.688Z,3.30
2018-11-20T06:37:49.788Z,3.30
2018-11-20T06:40:17.958Z,3.30
2018-11-20T06:42:46.035Z,3.30
2018-11-20T06:45:14.113Z,3.30
2018-11-20T06:47:42.515Z,3.30
2018-11-20T06:50:11.098Z,3.30
2018-11-20T06:52:39.243Z,3.30
2018-11-20T06:55:07.356Z,3.30
2018-11-20T06:57:35.506Z,3.40
2018-11-20T07:00:03.674Z,3.40
2018-11-20T07:02:31.812Z,3.40
2018-11-20T07:05:00.061Z,3.30
2018-11-20T07:07:28.302Z,3.40
2018-11-20T07:09:56.248Z,3.40
2018-11-20T07:12:24.404Z,3.40
2018-11-20T07:14:52.537Z,3.40
2018-11-20T07:17:22.775Z,3.40
2018-11-20T07:19:50.936Z,3.40
2018-11-20T07:22:19.047Z,3.40
2018-11-20T07:24:47.173Z,3.40
2018-11-20T07:27:15.279Z,3.40
2018-11-20T07:29:43.500Z,3.40
2018-11-20T07:32:11.471Z,3.40
2018-11-20T07:34:39.622Z,3.40
2018-11-20T07:37:07.759Z,3.40
2018-11-20T07:39:35.739Z,3.40
2018-11-20T07:42:05.946Z,3.40
2018-11-20T07:44:32.326Z,3.40
2018-11-20T07:47:00.432Z,3.40
2018-11-20T07:49:28.517Z,3.40
2018-11-20T07:51:56.632Z,3.40
2018-11-20T07:54:24.692Z,3.40
2018-11-20T07:56:52.788Z,3.40
2018-11-20T07:59:20.860Z,3.40
2018-11-20T08:01:48.956Z,3.40
2018-11-20T08:04:17.043Z,3.50
2018-11-20T08:06:45.160Z,3.50
2018-11-20T08:09:13.245Z,3.40
2018-11-20T08:11:41.367Z,3.40
2018-11-20T08:14:09.471Z,3.50
2018-11-20T08:16:37.591Z,3.50
2018-11-20T08:19:05.721Z,3.50
2018-11-20T08:21:33.784Z,3.50
2018-11-20T08:24:01.899Z,3.50
2018-11-20T08:26:30.188Z,3.50
2018-11-20T08:28:58.128Z,3.50
2018-11-20T08:31:26.202Z,3.50
2018-11-20T08:33:54.291Z,3.50
2018-11-20T08:36:22.379Z,3.50
2018-11-20T08:38:50.527Z,3.50
2018-11-20T08:41:18.603Z,3.50
2018-11-20T08:43:46.685Z,3.50
2018-11-20T08:46:14.805Z,3.60
2018-11-20T08:48:42.888Z,3.60
2018-11-20T08:51:11.203Z,3.60
2018-11-20T08:53:39.336Z,3.60
2018-11-20T08:56:07.383Z,3.60
2018-11-20T08:58:35.457Z,3.60
2018-11-20T09:01:03.566Z,3.60
2018-11-20T09:03:31.643Z,3.60
2018-11-20T09:06:00.044Z,3.70
2018-11-20T09:08:28.143Z,3.70
2018-11-20T09:10:56.246Z,3.70
2018-11-20T09:13:24.491Z,3.70
2018-11-20T09:15:52.632Z,3.70
2018-11-20T09:18:20.703Z,3.70
2018-11-20T09:20:48.841Z,3.70
2018-11-20T09:23:16.904Z,3.70
2018-11-20T09:25:45.098Z,3.70
2018-11-20T09:28:13.107Z,3.70
2018-11-20T09:30:41.329Z,3.70
2018-11-20T09:33:09.442Z,3.80
2018-11-20T09:35:37.686Z,3.70
2018-11-20T09:38:08.160Z,3.80
2018-11-20T09:40:53.632Z,3.80
2018-11-20T09:43:23.756Z,3.80
2018-11-20T09:45:58.728Z,3.80
2018-11-20T09:48:26.799Z,3.80
2018-11-20T09:50:54.908Z,3.90
2018-11-20T09:53:23.061Z,3.90
2018-11-20T09:55:51.153Z,3.90
2018-11-20T09:58:19.262Z,3.90
2018-11-20T10:00:47.344Z,3.90
2018-11-20T10:03:15.449Z,4.00
2018-11-20T10:05:43.560Z,4.00
2018-11-20T10:08:11.671Z,4.00
2018-11-20T10:10:39.771Z,4.00
2018-11-20T10:13:07.884Z,4.00
2018-11-20T10:15:36.016Z,4.00
2018-11-20T10:18:04.528Z,4.00
2018-11-20T10:20:32.645Z,4.00
2018-11-20T10:23:00.775Z,4.00
2018-11-20T10:25:29.012Z,4.00
2018-11-20T10:27:56.980Z,4.00
2018-11-20T10:30:25.082Z,4.00
2018-11-20T10:32:53.164Z,4.00
2018-11-20T10:35:21.287Z,4.10
2018-11-20T10:37:49.372Z,4.10
2018-11-20T10:40:17.493Z,4.10
2018-11-20T10:42:45.562Z,4.10
2018-11-20T10:45:13.706Z,4.20
2018-11-20T10:47:41.905Z,4.20
2018-11-20T10:50:10.009Z,4.30
2018-11-20T10:52:38.429Z,4.30
2018-11-20T10:55:06.354Z,4.30
2018-11-20T10:57:34.478Z,4.40
2018-11-20T11:00:02.575Z,4.40
2018-11-20T11:02:30.645Z,4.50
2018-11-20T11:04:58.815Z,4.50
2018-11-20T11:07:26.879Z,4.60
2018-11-20T11:09:54.898Z,4.70
2018-11-20T11:12:23.063Z,4.70
2018-11-20T11:14:51.178Z,4.70
2018-11-20T11:17:19.280Z,4.80
2018-11-20T11:19:47.356Z,4.80
2018-11-20T11:22:15.465Z,4.80
2018-11-20T11:24:43.573Z,4.80
2018-11-20T11:27:11.741Z,4.90
2018-11-20T11:29:39.805Z,4.90
2018-11-20T11:32:08.012Z,4.90
2018-11-20T11:34:36.421Z,4.90
2018-11-20T11:37:04.495Z,4.90
2018-11-20T11:39:32.598Z,5.00
2018-11-20T11:42:00.667Z,5.00
2018-11-20T11:44:28.767Z,5.00
2018-11-20T11:46:56.841Z,5.00
2018-11-20T11:49:25.144Z,5.10
2018-11-20T11:51:53.219Z,5.10
2018-11-20T11:54:21.309Z,5.20
2018-11-20T11:56:49.366Z,5.20
2018-11-20T11:59:21.226Z,5.10
2018-11-20T12:04:16.671Z,5.20
2018-11-20T12:06:44.717Z,5.20
2018-11-20T12:09:12.880Z,5.20
2018-11-20T12:11:41.112Z,5.10
2018-11-20T12:14:09.198Z,5.10
2018-11-20T12:16:37.293Z,5.10
2018-11-20T12:19:05.364Z,5.20
2018-11-20T12:21:33.515Z,5.10
2018-11-20T12:24:01.583Z,5.10
2018-11-20T12:26:32.406Z,5.00
2018-11-20T12:28:58.033Z,5.00
2018-11-20T12:31:25.937Z,5.10
2018-11-20T12:33:54.022Z,5.20
2018-11-20T12:36:22.108Z,5.20
2018-11-20T12:38:50.211Z,5.20
2018-11-20T12:41:18.277Z,5.20
2018-11-20T12:43:46.404Z,5.20
2018-11-20T12:46:15.922Z,5.20
2018-11-20T12:48:43.393Z,5.20
2018-11-20T12:51:11.484Z,5.20
2018-11-20T12:53:40.677Z,5.10
2018-11-20T12:56:07.721Z,5.00
2018-11-20T12:58:35.833Z,5.10
2018-11-20T13:01:03.889Z,5.10
2018-11-20T13:03:32.943Z,5.10
2018-11-20T13:06:00.186Z,5.10
2018-11-20T13:08:31.202Z,5.00
2018-11-20T13:10:56.652Z,5.00
2018-11-20T13:13:24.767Z,4.90
2018-11-20T13:15:53.443Z,4.90
2018-11-20T13:18:20.980Z,5.00
2018-11-20T13:20:50.583Z,5.00
2018-11-20T13:23:19.039Z,4.90
2018-11-20T13:25:45.345Z,4.90
2018-11-20T13:28:16.074Z,4.90
2018-11-20T13:30:41.655Z,4.80
2018-11-20T13:33:09.685Z,4.80
2018-11-20T13:35:37.839Z,4.70
2018-11-20T13:38:05.915Z,4.70
2018-11-20T13:41:10.668Z,4.70
2018-11-20T13:43:38.750Z,4.70
2018-11-20T13:46:06.887Z,4.60
2018-11-20T13:48:34.981Z,4.60
2018-11-20T13:51:03.563Z,4.50
2018-11-20T13:53:31.892Z,4.60
2018-11-20T13:55:59.829Z,4.50
2018-11-20T13:58:28.267Z,4.50
2018-11-20T14:00:56.333Z,4.50
2018-11-20T14:03:24.464Z,4.50
2018-11-20T14:05:52.542Z,4.60
2018-11-20T14:08:21.032Z,4.60
2018-11-20T14:10:49.442Z,4.50
2018-11-20T14:13:17.668Z,4.50
2018-11-20T14:15:48.576Z,4.50
2018-11-20T14:18:14.163Z,4.50
2018-11-20T14:20:42.266Z,4.50
2018-11-20T14:23:10.420Z,4.50
2018-11-20T14:25:40.664Z,4.50
2018-11-20T14:28:08.827Z,4.50
2018-11-20T14:30:39.567Z,4.50
2018-11-20T14:33:05.085Z,4.50
2018-11-20T14:35:33.197Z,4.50
2018-11-20T14:38:01.283Z,4.50
2018-11-20T14:40:29.415Z,4.50
2018-11-20T14:42:57.526Z,4.50
2018-11-20T14:45:25.649Z,4.50
2018-11-20T14:47:53.765Z,4.50
2018-11-20T14:50:21.888Z,4.50
2018-11-20T14:52:49.986Z,4.50
2018-11-20T14:55:18.100Z,4.50
2018-11-20T14:57:46.223Z,4.50
2018-11-20T15:00:14.598Z,4.50
2018-11-20T15:02:42.793Z,4.50
2018-11-20T15:05:10.935Z,4.50
2018-11-20T15:07:39.038Z,4.50
2018-11-20T15:10:07.121Z,4.50
2018-11-20T15:12:35.250Z,4.50
2018-11-20T15:15:04.226Z,4.50
2018-11-20T15:17:32.379Z,4.50
2018-11-20T15:20:00.468Z,4.60
2018-11-20T15:22:28.568Z,4.50
2018-11-20T15:24:56.630Z,4.60
2018-11-20T15:27:24.738Z,4.50
2018-11-20T15:29:53.857Z,4.50
2018-11-20T15:32:20.883Z,4.60
2018-11-20T15:34:48.993Z,4.60
2018-11-20T15:37:17.054Z,4.60
2018-11-20T15:39:45.140Z,4.50
2018-11-20T15:42:13.263Z,4.60
2018-11-20T15:44:41.377Z,4.60
2018-11-20T15:47:09.601Z,4.60
2018-11-20T15:49:37.738Z,4.60
2018-11-20T15:52:05.838Z,4.60
2018-11-20T15:54:33.939Z,4.70
2018-11-20T15:57:02.065Z,4.70
2018-11-20T15:59:30.159Z,4.70
2018-11-20T16:01:58.215Z,4.70
2018-11-20T16:04:26.355Z,4.60
2018-11-20T16:06:54.452Z,4.70
2018-11-20T16:09:22.537Z,4.70
2018-11-20T16:11:50.633Z,4.70
2018-11-20T16:14:18.732Z,4.70
2018-11-20T16:16:47.053Z,4.80
2018-11-20T16:19:15.122Z,4.80
2018-11-20T16:21:43.270Z,4.80
2018-11-20T16:24:11.360Z,4.80
2018-11-20T16:26:39.475Z,4.80
2018-11-20T16:29:07.557Z,4.80
2018-11-20T16:31:35.637Z,4.80
2018-11-20T16:34:04.075Z,4.80
2018-11-20T16:36:32.216Z,4.80
2018-11-20T16:39:00.374Z,4.80
2018-11-20T16:41:28.510Z,4.80
2018-11-20T16:43:56.634Z,4.80
2018-11-20T16:46:24.717Z,4.80
2018-11-20T16:48:52.889Z,4.80
2018-11-20T16:51:21.196Z,4.80
2018-11-20T16:53:49.328Z,4.90
2018-11-20T16:56:17.417Z,4.90
2018-11-20T16:58:45.539Z,4.90
2018-11-20T17:01:13.830Z,4.90
2018-11-20T17:03:42.168Z,4.90
2018-11-20T17:06:10.285Z,4.90
2018-11-20T17:08:38.399Z,4.90
2018-11-20T17:11:06.565Z,4.90
2018-11-20T17:13:34.682Z,4.90
2018-11-20T17:16:02.819Z,4.90
2018-11-20T17:18:30.895Z,4.90
2018-11-20T17:20:59.143Z,4.90
2018-11-20T17:23:27.246Z,4.90
2018-11-20T17:25:55.385Z,5.00
2018-11-20T17:28:23.460Z,5.00
2018-11-20T17:30:51.608Z,5.00
2018-11-20T17:33:19.690Z,5.00
2018-11-20T17:35:47.787Z,5.00
2018-11-20T17:38:15.907Z,5.00
2018-11-20T17:40:44.037Z,5.10
2018-11-20T17:43:12.176Z,5.00
2018-11-20T17:45:41.876Z,5.10
2018-11-20T17:48:08.397Z,5.00
2018-11-20T17:50:36.625Z,5.00
2018-11-20T17:53:04.767Z,5.00
2018-11-20T17:55:32.885Z,5.00
2018-11-20T17:58:01.022Z,5.00
2018-11-20T18:00:29.085Z,5.00
2018-11-20T18:02:57.344Z,5.00
2018-11-20T18:05:25.473Z,5.00
2018-11-20T18:07:56.225Z,5.00
2018-11-20T18:10:21.917Z,5.00
2018-11-20T18:12:50.035Z,5.00
2018-11-20T18:15:18.150Z,4.90
2018-11-20T18:17:46.208Z,5.00
2018-11-20T18:20:14.341Z,4.90
2018-11-20T18:22:44.025Z,5.00
2018-11-20T18:25:12.439Z,5.00
2018-11-20T18:27:40.797Z,4.90
2018-11-20T18:30:09.634Z,5.00
2018-11-20T18:32:37.704Z,4.90
2018-11-20T18:35:06.385Z,4.90
2018-11-20T18:37:34.516Z,4.90
2018-11-20T18:40:02.780Z,4.90
2018-11-20T18:42:30.914Z,4.90
2018-11-20T18:44:59.091Z,4.90
2018-11-20T18:47:27.207Z,4.90
2018-11-20T18:49:55.437Z,4.90
2018-11-20T18:52:23.636Z,4.90
2018-11-20T18:54:51.892Z,4.90
2018-11-20T18:57:20.086Z,4.90
2018-11-20T18:59:48.230Z,4.90
2018-11-20T19:02:16.366Z,4.90
2018-11-20T19:04:44.449Z,4.80
2018-11-20T19:07:12.567Z,4.80
2018-11-20T19:09:43.027Z,4.80
2018-11-20T19:12:11.234Z,4.80
2018-11-20T19:14:39.440Z,4.70
2018-11-20T19:17:07.667Z,4.80
2018-11-20T19:19:35.785Z,4.80
2018-11-20T19:22:04.005Z,4.80
2018-11-20T19:24:32.056Z,4.80
2018-11-20T19:27:00.187Z,4.70
2018-11-20T19:29:28.322Z,4.80
2018-11-20T19:31:56.500Z,4.80
2018-11-20T19:34:24.732Z,4.90
2018-11-20T19:36:53.201Z,4.90
2018-11-20T19:39:23.966Z,4.90
2018-11-20T19:41:52.077Z,4.90
2018-11-20T19:44:20.162Z,4.90
2018-11-20T19:46:48.263Z,4.90
2018-11-20T19:49:16.489Z,4.90
2018-11-20T19:51:44.553Z,4.90
2018-11-20T19:54:12.677Z,4.80
2018-11-20T19:56:40.776Z,4.90
2018-11-20T19:59:08.893Z,4.90
2018-11-20T20:01:37.025Z,4.90
2018-11-20T20:04:05.593Z,4.80
2018-11-20T20:06:33.765Z,4.80
2018-11-20T20:09:01.860Z,4.90
2018-11-20T20:11:29.984Z,4.90
2018-11-20T20:13:58.097Z,4.80
2018-11-20T20:16:26.181Z,4.80
2018-11-20T20:18:54.454Z,4.80
2018-11-20T20:21:24.429Z,4.80
2018-11-20T20:23:50.769Z,4.70
2018-11-20T20:26:19.016Z,4.70
2018-11-20T20:28:47.113Z,4.70
2018-11-20T20:31:15.245Z,4.70
2018-11-20T20:33:43.450Z,4.60
2018-11-20T20:36:11.608Z,4.60
2018-11-20T20:38:39.717Z,4.50
2018-11-20T20:41:07.884Z,4.50
2018-11-20T20:43:35.988Z,4.50
2018-11-20T20:46:04.261Z,4.40
2018-11-20T20:48:35.756Z,4.40
2018-11-20T20:51:00.466Z,4.30
2018-11-20T20:53:28.574Z,4.30
2018-11-20T20:55:56.758Z,4.30
2018-11-20T20:58:25.350Z,4.20
2018-11-20T21:00:53.467Z,4.20
2018-11-20T21:03:21.626Z,4.20
2018-11-20T21:05:49.711Z,4.10
2018-11-20T21:08:17.808Z,4.00
2018-11-20T21:10:45.947Z,4.00
2018-11-20T21:13:14.055Z,3.90
2018-11-20T21:15:42.184Z,3.90
2018-11-20T21:18:13.220Z,3.80
2018-11-20T21:20:41.333Z,3.80
2018-11-20T21:23:09.471Z,3.70
2018-11-20T21:25:37.577Z,3.70
2018-11-20T21:28:05.746Z,3.70
2018-11-20T21:30:33.881Z,3.70
2018-11-20T21:33:01.976Z,3.70
2018-11-20T21:35:30.100Z,3.60
2018-11-20T21:37:58.210Z,3.60
2018-11-20T21:40:26.427Z,3.60
2018-11-20T21:42:54.512Z,3.60
2018-11-20T21:45:22.615Z,3.60
2018-11-20T21:47:50.702Z,3.60
2018-11-20T21:50:18.884Z,3.60
2018-11-20T21:52:46.980Z,3.60
2018-11-20T21:55:15.116Z,3.60
2018-11-20T21:57:43.207Z,3.60
2018-11-20T22:00:18.439Z,3.70
2018-11-20T22:02:48.293Z,3.70
2018-11-20T22:05:14.608Z,3.70
2018-11-20T22:07:42.861Z,3.80
2018-11-20T22:10:10.956Z,3.80
2018-11-20T22:12:39.127Z,3.80
2018-11-20T22:15:07.860Z,3.90
2018-11-20T22:17:36.038Z,3.90
2018-11-20T22:20:04.749Z,3.90
2018-11-20T22:22:32.893Z,3.90
2018-11-20T22:25:00.975Z,3.90
2018-11-20T22:27:29.096Z,4.00
2018-11-20T22:29:57.252Z,4.10
2018-11-20T22:32:25.429Z,4.10
2018-11-20T22:34:53.495Z,4.10
2018-11-20T22:37:21.620Z,4.10
2018-11-20T22:39:49.723Z,4.20
2018-11-20T22:42:17.823Z,4.10
2018-11-20T22:44:45.928Z,4.20
2018-11-20T22:47:14.066Z,4.20
2018-11-20T22:49:42.200Z,4.20
2018-11-20T22:52:10.325Z,4.20
2018-11-20T22:54:38.422Z,4.30
2018-11-20T22:57:06.481Z,4.30
2018-11-20T22:59:34.614Z,4.30
2018-11-20T23:02:02.752Z,4.30
2018-11-20T23:04:35.767Z,4.30
2018-11-20T23:07:03.991Z,4.40
2018-11-20T23:09:32.089Z,4.40
2018-11-20T23:12:00.178Z,4.50
2018-11-20T23:14:28.310Z,4.50
2018-11-20T23:16:56.425Z,4.40
2018-11-20T23:19:24.504Z,4.40
2018-11-20T23:21:52.604Z,4.50
2018-11-20T23:24:20.688Z,4.50
2018-11-20T23:26:48.831Z,4.50
2018-11-20T23:29:16.903Z,4.50
2018-11-20T23:31:45.052Z,4.50
2018-11-20T23:34:13.147Z,4.50
2018-11-20T23:36:41.266Z,4.60
2018-11-20T23:39:09.390Z,4.60
2018-11-20T23:41:37.501Z,4.60
2018-11-20T23:44:05.611Z,4.60
2018-11-20T23:46:33.737Z,4.60
2018-11-20T23:49:01.808Z,4.60
2018-11-20T23:51:29.929Z,4.60
2018-11-20T23:53:58.020Z,4.60
2018-11-20T23:56:26.095Z,4.60
2018-11-20T23:58:57.085Z,4.60
